createdAt,value
2017-09-06T00:00:44.292Z,17.04
2017-09-06T00:01:54.840Z,17.01
2017-09-06T00:03:05.292Z,17.06
2017-09-06T00:04:16.065Z,17.11
2017-09-06T00:05:26.532Z,17.11
2017-09-06T00:06:36.703Z,17.02
2017-09-06T00:07:48.230Z,17.09
2017-09-06T00:08:58.690Z,17.08
2017-09-06T00:10:09.438Z,17.08
2017-09-06T00:11:20.141Z,17.06
2017-09-06T00:12:30.141Z,17.04
2017-09-06T00:13:40.610Z,17.05
2017-09-06T00:14:50.445Z,16.99
2017-09-06T00:16:01.154Z,17.01
2017-09-06T00:17:11.617Z,16.98
2017-09-06T00:18:22.127Z,16.98
2017-09-06T00:19:32.648Z,17.01
2017-09-06T00:20:43.183Z,16.91
2017-09-06T00:21:53.901Z,16.96
2017-09-06T00:23:04.377Z,17.01
2017-09-06T00:24:14.879Z,16.93
2017-09-06T00:25:25.340Z,17.02
2017-09-06T00:26:36.078Z,16.99
2017-09-06T00:27:46.987Z,16.93
2017-09-06T00:28:57.433Z,16.93
2017-09-06T00:30:07.883Z,16.98
2017-09-06T00:31:18.419Z,16.87
2017-09-06T00:32:28.985Z,16.91
2017-09-06T00:33:39.686Z,16.96
2017-09-06T00:34:50.135Z,16.93
2017-09-06T00:36:00.678Z,16.94
2017-09-06T00:37:11.155Z,16.93
2017-09-06T00:38:21.616Z,16.96
2017-09-06T00:39:32.335Z,17.04
2017-09-06T00:40:42.820Z,17.02
2017-09-06T00:41:53.275Z,17.04
2017-09-06T00:43:03.756Z,17.05
2017-09-06T00:44:14.233Z,17.02
2017-09-06T00:45:24.951Z,17.02
2017-09-06T00:46:35.534Z,17.02
2017-09-06T00:47:45.974Z,16.99
2017-09-06T00:48:56.225Z,16.94
2017-09-06T00:50:06.812Z,17.04
2017-09-06T00:51:16.970Z,16.99
2017-09-06T00:52:27.416Z,16.94
2017-09-06T00:53:37.910Z,16.96
2017-09-06T00:54:48.353Z,16.99
2017-09-06T00:55:58.880Z,16.98
2017-09-06T00:57:09.607Z,16.96
2017-09-06T00:58:20.096Z,16.99
2017-09-06T00:59:30.543Z,17.01
2017-09-06T01:00:41.015Z,16.99
2017-09-06T01:01:51.470Z,17.02
2017-09-06T01:03:02.190Z,16.99
2017-09-06T01:04:12.712Z,16.93
2017-09-06T01:05:22.863Z,16.91
2017-09-06T01:06:33.076Z,16.99
2017-09-06T01:07:43.517Z,16.96
2017-09-06T01:08:54.271Z,16.99
2017-09-06T01:10:04.748Z,16.98
2017-09-06T01:11:15.252Z,17.04
2017-09-06T01:12:25.720Z,17.06
2017-09-06T01:13:36.199Z,17.05
2017-09-06T01:14:46.727Z,17.06
2017-09-06T01:15:56.823Z,17.08
2017-09-06T01:17:07.269Z,17.09
2017-09-06T01:18:17.412Z,17.05
2017-09-06T01:19:27.427Z,17.08
2017-09-06T01:20:38.181Z,17.14
2017-09-06T01:21:48.676Z,17.12
2017-09-06T01:22:59.180Z,17.11
2017-09-06T01:24:09.655Z,17.06
2017-09-06T01:25:20.106Z,17.12
2017-09-06T01:26:30.840Z,17.09
2017-09-06T01:27:41.417Z,17.04
2017-09-06T01:28:51.873Z,17.06
2017-09-06T01:30:02.343Z,16.96
2017-09-06T01:31:12.817Z,17.02
2017-09-06T01:32:23.278Z,17.02
2017-09-06T01:33:33.448Z,17.04
2017-09-06T01:34:43.904Z,16.93
2017-09-06T01:35:54.396Z,16.96
2017-09-06T01:37:04.911Z,16.94
2017-09-06T01:38:15.652Z,17.04
2017-09-06T01:39:26.234Z,16.98
2017-09-06T01:40:36.687Z,16.99
2017-09-06T01:41:47.199Z,16.98
2017-09-06T01:42:58.655Z,17.01
2017-09-06T01:44:09.462Z,16.98
2017-09-06T01:45:19.947Z,16.96
2017-09-06T01:46:30.529Z,17.06
2017-09-06T01:47:41.032Z,17.09
2017-09-06T01:48:51.491Z,17.08
2017-09-06T01:50:02.256Z,17.04
2017-09-06T01:51:12.573Z,17.11
2017-09-06T01:52:23.065Z,17.11
2017-09-06T01:53:34.587Z,17.14
2017-09-06T01:54:45.035Z,17.12
2017-09-06T01:55:55.712Z,17.17
2017-09-06T01:57:06.170Z,17.2
2017-09-06T01:58:16.723Z,17.11
2017-09-06T01:59:27.240Z,17.08
2017-09-06T02:00:37.730Z,17.14
2017-09-06T02:01:48.454Z,17.11
2017-09-06T02:02:59.041Z,17.11
2017-09-06T02:04:08.799Z,17.12
2017-09-06T02:05:19.329Z,17.09
2017-09-06T02:06:29.795Z,17.23
2017-09-06T02:07:40.613Z,17.14
2017-09-06T02:08:51.111Z,17.14
2017-09-06T02:10:01.578Z,17.08
2017-09-06T02:11:12.028Z,17.23
2017-09-06T02:12:22.490Z,17.06
2017-09-06T02:13:33.255Z,17.16
2017-09-06T02:14:43.729Z,17.12
2017-09-06T02:15:54.197Z,17.12
2017-09-06T02:17:04.651Z,17.17
2017-09-06T02:18:15.152Z,17.09
2017-09-06T02:19:25.887Z,17.11
2017-09-06T02:20:36.036Z,17.09
2017-09-06T02:21:47.466Z,17.09
2017-09-06T02:22:57.637Z,17.11
2017-09-06T02:24:08.124Z,17.08
2017-09-06T02:25:18.855Z,17.08
2017-09-06T02:26:29.320Z,17.09
2017-09-06T02:27:39.465Z,16.99
2017-09-06T02:28:49.909Z,16.91
2017-09-06T02:30:00.499Z,16.99
2017-09-06T02:31:11.221Z,16.9
2017-09-06T02:32:21.692Z,16.93
2017-09-06T02:33:32.147Z,16.93
2017-09-06T02:34:42.593Z,16.93
2017-09-06T02:35:53.087Z,16.96
2017-09-06T02:37:03.820Z,16.89
2017-09-06T02:38:14.264Z,16.9
2017-09-06T02:39:24.738Z,16.87
2017-09-06T02:40:35.229Z,16.87
2017-09-06T02:41:45.675Z,16.86
2017-09-06T02:42:56.374Z,16.91
2017-09-06T02:44:06.065Z,16.86
2017-09-06T02:45:16.514Z,16.79
2017-09-06T02:46:27.021Z,16.89
2017-09-06T02:47:37.733Z,16.89
2017-09-06T02:48:48.130Z,16.83
2017-09-06T02:49:58.681Z,16.83
2017-09-06T02:51:09.154Z,16.83
2017-09-06T02:52:19.605Z,16.86
2017-09-06T02:53:30.062Z,16.83
2017-09-06T02:54:40.817Z,16.82
2017-09-06T02:55:51.294Z,16.76
2017-09-06T02:57:01.756Z,16.86
2017-09-06T02:58:12.229Z,16.87
2017-09-06T02:59:22.820Z,16.87
2017-09-06T03:00:33.530Z,16.94
2017-09-06T03:01:43.680Z,16.98
2017-09-06T03:02:54.145Z,16.91
2017-09-06T03:04:04.728Z,16.98
2017-09-06T03:05:14.859Z,16.99
2017-09-06T03:06:25.636Z,16.99
2017-09-06T03:07:35.775Z,17.02
2017-09-06T03:08:46.237Z,16.99
2017-09-06T03:09:56.805Z,17.08
2017-09-06T03:11:07.335Z,16.93
2017-09-06T03:12:18.179Z,17.04
2017-09-06T03:13:28.639Z,17.01
2017-09-06T03:14:39.116Z,17.05
2017-09-06T03:15:49.560Z,17.05
2017-09-06T03:17:00.100Z,17.01
2017-09-06T03:18:10.833Z,17.05
2017-09-06T03:19:20.982Z,17.06
2017-09-06T03:20:31.462Z,17.02
2017-09-06T03:21:41.624Z,16.94
2017-09-06T03:22:52.168Z,16.9
2017-09-06T03:24:02.871Z,16.84
2017-09-06T03:25:13.520Z,16.76
2017-09-06T03:26:23.965Z,16.76
2017-09-06T03:27:34.423Z,16.68
2017-09-06T03:28:44.984Z,16.74
2017-09-06T03:29:55.393Z,16.72
2017-09-06T03:31:06.018Z,16.76
2017-09-06T03:32:16.484Z,16.76
2017-09-06T03:33:27.185Z,16.71
2017-09-06T03:34:37.351Z,16.75
2017-09-06T03:35:48.053Z,16.76
2017-09-06T03:36:58.531Z,16.79
2017-09-06T03:38:09.035Z,16.76
2017-09-06T03:39:19.519Z,16.68
2017-09-06T03:40:29.961Z,16.71
2017-09-06T03:41:40.655Z,16.62
2017-09-06T03:42:50.830Z,16.64
2017-09-06T03:44:01.379Z,16.64
2017-09-06T03:45:11.845Z,16.66
2017-09-06T03:46:22.414Z,16.51
2017-09-06T03:47:32.946Z,16.66
2017-09-06T03:48:43.472Z,16.57
2017-09-06T03:49:53.945Z,16.54
2017-09-06T03:51:04.401Z,16.54
2017-09-06T03:52:14.863Z,16.68
2017-09-06T03:53:25.569Z,16.59
2017-09-06T03:54:36.022Z,16.62
2017-09-06T03:55:46.505Z,16.61
2017-09-06T03:56:56.984Z,16.59
2017-09-06T03:58:07.472Z,16.54
2017-09-06T03:59:17.736Z,16.54
2017-09-06T04:00:27.554Z,16.51
2017-09-06T04:01:37.993Z,16.54
2017-09-06T04:02:48.521Z,16.57
2017-09-06T04:03:58.971Z,16.56
2017-09-06T04:05:09.720Z,16.53
2017-09-06T04:06:20.178Z,16.68
2017-09-06T04:07:30.656Z,16.71
2017-09-06T04:08:40.787Z,16.69
2017-09-06T04:09:51.246Z,16.68
2017-09-06T04:11:02.008Z,16.66
2017-09-06T04:12:12.468Z,16.65
2017-09-06T04:13:22.959Z,16.68
2017-09-06T04:14:33.426Z,16.69
2017-09-06T04:15:43.872Z,16.66
2017-09-06T04:16:54.262Z,16.65
2017-09-06T04:18:04.735Z,16.66
2017-09-06T04:19:15.267Z,16.69
2017-09-06T04:20:25.709Z,16.72
2017-09-06T04:21:36.213Z,16.76
2017-09-06T04:22:47.016Z,16.76
2017-09-06T04:23:57.476Z,16.75
2017-09-06T04:25:07.963Z,16.75
2017-09-06T04:26:18.423Z,16.74
2017-09-06T04:27:28.990Z,16.71
2017-09-06T04:28:39.593Z,16.74
2017-09-06T04:29:50.052Z,16.75
2017-09-06T04:31:00.045Z,16.75
2017-09-06T04:32:10.529Z,16.83
2017-09-06T04:33:21.133Z,16.87
2017-09-06T04:34:31.842Z,16.86
2017-09-06T04:35:42.561Z,16.99
2017-09-06T04:36:53.031Z,16.87
2017-09-06T04:38:03.490Z,16.99
2017-09-06T04:39:13.929Z,17.04
2017-09-06T04:40:24.682Z,16.93
2017-09-06T04:41:34.761Z,16.9
2017-09-06T04:43:17.092Z,16.93
2017-09-06T04:44:27.564Z,16.94
2017-09-06T04:45:38.404Z,16.98
2017-09-06T04:46:48.872Z,16.96
2017-09-06T04:47:59.438Z,16.99
2017-09-06T04:49:10.148Z,17.02
2017-09-06T04:50:20.291Z,16.96
2017-09-06T04:51:31.023Z,17.06
2017-09-06T04:52:41.559Z,17.09
2017-09-06T04:53:52.029Z,17.04
2017-09-06T04:55:02.478Z,17.09
2017-09-06T04:56:12.985Z,16.98
2017-09-06T04:57:23.392Z,17.08
2017-09-06T04:58:33.839Z,16.96
2017-09-06T04:59:44.329Z,17.11
2017-09-06T05:00:54.826Z,17.08
2017-09-06T05:02:05.513Z,17.08
2017-09-06T05:03:16.237Z,17.06
2017-09-06T05:04:26.842Z,17.05
2017-09-06T05:05:37.304Z,16.98
2017-09-06T05:06:47.795Z,17.05
2017-09-06T05:07:58.276Z,17.01
2017-09-06T05:09:09.231Z,17.05
2017-09-06T05:10:19.787Z,16.98
2017-09-06T05:11:30.247Z,16.96
2017-09-06T05:12:40.463Z,16.94
2017-09-06T05:13:50.642Z,16.93
2017-09-06T05:15:01.383Z,16.98
2017-09-06T05:16:11.871Z,16.94
2017-09-06T05:17:22.343Z,16.99
2017-09-06T05:18:32.813Z,16.9
2017-09-06T05:19:43.322Z,16.99
2017-09-06T05:20:54.052Z,16.9
2017-09-06T05:22:04.509Z,16.94
2017-09-06T05:23:15.141Z,16.96
2017-09-06T05:24:25.584Z,16.98
2017-09-06T05:25:36.101Z,16.94
2017-09-06T05:26:47.051Z,17.02
2017-09-06T05:27:57.510Z,17.05
2017-09-06T05:29:08.014Z,17.02
2017-09-06T05:30:18.563Z,17.01
2017-09-06T05:31:29.019Z,17.01
2017-09-06T05:32:39.910Z,17.02
2017-09-06T05:33:50.052Z,17.02
2017-09-06T05:35:00.533Z,17.06
2017-09-06T05:36:11.000Z,17.06
2017-09-06T05:37:21.539Z,17.01
2017-09-06T05:38:32.258Z,16.99
2017-09-06T05:39:42.715Z,17.12
2017-09-06T05:40:53.200Z,17.06
2017-09-06T05:42:03.361Z,17.12
2017-09-06T05:43:13.921Z,17.06
2017-09-06T05:44:24.321Z,17.2
2017-09-06T05:45:34.787Z,17.21
2017-09-06T05:46:45.543Z,17.2
2017-09-06T05:47:56.037Z,17.3
2017-09-06T05:49:06.511Z,17.32
2017-09-06T05:50:16.923Z,17.42
2017-09-06T05:51:27.458Z,17.46
2017-09-06T05:52:37.975Z,17.46
2017-09-06T05:53:48.448Z,17.47
2017-09-06T05:54:58.931Z,17.49
2017-09-06T05:56:09.725Z,17.57
2017-09-06T05:57:20.184Z,17.6
2017-09-06T05:58:30.769Z,17.61
2017-09-06T05:59:41.215Z,17.65
2017-09-06T06:00:51.373Z,17.75
2017-09-06T06:02:02.084Z,17.68
2017-09-06T06:03:12.588Z,17.79
2017-09-06T06:04:23.023Z,17.83
2017-09-06T06:05:33.514Z,17.87
2017-09-06T06:06:43.792Z,17.86
2017-09-06T06:07:54.494Z,17.89
2017-09-06T06:09:04.962Z,18.05
2017-09-06T06:10:15.463Z,18.05
2017-09-06T06:11:25.955Z,18.01
2017-09-06T06:12:36.437Z,18.09
2017-09-06T06:13:47.162Z,18.16
2017-09-06T06:14:57.656Z,18.2
2017-09-06T06:16:07.882Z,18.16
2017-09-06T06:17:18.350Z,18.31
2017-09-06T06:18:28.801Z,18.26
2017-09-06T06:19:39.509Z,18.35
2017-09-06T06:20:49.980Z,18.34
2017-09-06T06:22:00.137Z,18.4
2017-09-06T06:23:10.601Z,18.34
2017-09-06T06:24:20.755Z,18.47
2017-09-06T06:25:31.546Z,18.37
2017-09-06T06:26:41.997Z,18.53
2017-09-06T06:27:52.516Z,18.65
2017-09-06T06:29:02.985Z,18.56
2017-09-06T06:30:13.168Z,18.6
2017-09-06T06:31:23.852Z,18.62
2017-09-06T06:32:34.330Z,18.6
2017-09-06T06:33:44.831Z,18.73
2017-09-06T06:34:55.447Z,18.72
2017-09-06T06:36:05.972Z,18.69
2017-09-06T06:37:16.757Z,18.84
2017-09-06T06:38:26.933Z,18.88
2017-09-06T06:39:37.403Z,18.86
2017-09-06T06:40:47.999Z,18.91
2017-09-06T06:41:58.467Z,18.93
2017-09-06T06:43:09.267Z,18.94
2017-09-06T06:44:19.416Z,18.95
2017-09-06T06:45:29.928Z,19.03
2017-09-06T06:46:40.419Z,19.02
2017-09-06T06:47:50.899Z,19.06
2017-09-06T06:49:33.452Z,19.08
2017-09-06T06:50:44.012Z,19.13
2017-09-06T06:51:54.500Z,19.18
2017-09-06T06:53:04.953Z,19.05
2017-09-06T06:54:15.816Z,19.15
2017-09-06T06:55:26.269Z,19.25
2017-09-06T06:56:36.111Z,19.15
2017-09-06T06:57:46.603Z,19.15
2017-09-06T06:58:56.777Z,19.21
2017-09-06T07:00:07.495Z,19.19
2017-09-06T07:01:18.003Z,19.12
2017-09-06T07:02:28.556Z,19.09
2017-09-06T07:03:39.008Z,19.05
2017-09-06T07:04:49.469Z,18.97
2017-09-06T07:06:00.274Z,18.98
2017-09-06T07:07:10.478Z,18.97
2017-09-06T07:08:20.924Z,18.87
2017-09-06T07:09:31.454Z,18.73
2017-09-06T07:10:41.595Z,18.69
2017-09-06T07:11:52.295Z,18.63
2017-09-06T07:13:02.804Z,18.56
2017-09-06T07:14:13.273Z,18.42
2017-09-06T07:15:23.779Z,18.5
2017-09-06T07:16:34.241Z,18.4
2017-09-06T07:17:44.976Z,18.28
2017-09-06T07:18:55.123Z,18.41
2017-09-06T07:20:05.669Z,18.3
2017-09-06T07:21:16.140Z,18.12
2017-09-06T07:22:26.640Z,18.02
2017-09-06T07:23:37.042Z,17.98
2017-09-06T07:24:47.496Z,17.95
2017-09-06T07:25:57.949Z,17.92
2017-09-06T07:27:08.429Z,17.8
2017-09-06T07:28:18.910Z,17.73
2017-09-06T07:29:29.646Z,17.62
2017-09-06T07:30:40.118Z,17.62
2017-09-06T07:31:50.597Z,17.64
2017-09-06T07:33:01.253Z,17.62
2017-09-06T07:34:11.267Z,17.62
2017-09-06T07:35:22.021Z,17.5
2017-09-06T07:36:32.514Z,17.46
2017-09-06T07:37:43.049Z,17.5
2017-09-06T07:38:53.229Z,17.45
2017-09-06T07:40:03.816Z,17.46
2017-09-06T07:41:14.826Z,17.42
2017-09-06T07:42:24.869Z,17.39
2017-09-06T07:43:35.324Z,17.4
2017-09-06T07:44:45.918Z,17.36
2017-09-06T07:45:56.426Z,17.43
2017-09-06T07:47:07.204Z,17.45
2017-09-06T07:48:17.753Z,17.46
2017-09-06T07:49:28.211Z,17.36
2017-09-06T07:50:38.694Z,17.35
2017-09-06T07:51:49.166Z,17.23
2017-09-06T07:52:59.931Z,17.28
2017-09-06T07:54:10.396Z,17.21
2017-09-06T07:55:20.874Z,17.24
2017-09-06T07:56:30.897Z,17.2
2017-09-06T07:57:41.478Z,17.17
2017-09-06T07:58:51.861Z,17.14
2017-09-06T08:00:02.451Z,17.14
2017-09-06T08:01:12.939Z,17.21
2017-09-06T08:02:23.109Z,17.21
2017-09-06T08:03:33.644Z,17.2
2017-09-06T08:04:44.028Z,17.19
2017-09-06T08:05:54.560Z,17.17
2017-09-06T08:07:04.722Z,17.27
2017-09-06T08:08:15.174Z,17.23
2017-09-06T08:09:25.675Z,17.19
2017-09-06T08:10:36.419Z,17.23
2017-09-06T08:11:46.871Z,17.19
2017-09-06T08:12:57.016Z,17.23
2017-09-06T08:14:07.609Z,17.27
2017-09-06T08:15:18.061Z,17.31
2017-09-06T08:16:28.759Z,17.31
2017-09-06T08:17:39.342Z,17.3
2017-09-06T08:18:49.819Z,17.24
2017-09-06T08:20:00.328Z,17.32
2017-09-06T08:21:10.799Z,17.31
2017-09-06T08:22:21.201Z,17.19
2017-09-06T08:23:31.146Z,17.24
2017-09-06T08:24:41.730Z,17.27
2017-09-06T08:25:52.300Z,17.2
2017-09-06T08:27:02.779Z,17.36
2017-09-06T08:28:13.298Z,17.31
2017-09-06T08:29:23.756Z,17.27
2017-09-06T08:30:34.316Z,17.27
2017-09-06T08:31:44.775Z,17.27
2017-09-06T08:32:55.242Z,17.27
2017-09-06T08:34:05.949Z,17.35
2017-09-06T08:35:16.628Z,17.36
2017-09-06T08:36:26.768Z,17.4
2017-09-06T08:37:37.246Z,17.42
2017-09-06T08:38:47.813Z,17.36
2017-09-06T08:39:58.557Z,17.45
2017-09-06T08:41:08.243Z,17.46
2017-09-06T08:42:19.710Z,17.43
2017-09-06T08:43:30.173Z,17.43
2017-09-06T08:44:40.724Z,17.52
2017-09-06T08:45:51.521Z,17.6
2017-09-06T08:47:02.073Z,17.62
2017-09-06T08:48:12.531Z,17.67
2017-09-06T08:49:24.111Z,17.64
2017-09-06T08:50:34.695Z,17.7
2017-09-06T08:51:45.420Z,17.76
2017-09-06T08:52:55.884Z,17.77
2017-09-06T08:54:06.367Z,17.94
2017-09-06T08:55:16.849Z,18
2017-09-06T08:56:27.495Z,18.02
2017-09-06T08:57:38.233Z,18.05
2017-09-06T08:58:48.708Z,18.07
2017-09-06T08:59:58.884Z,18.35
2017-09-06T09:01:09.399Z,18.34
2017-09-06T09:02:19.896Z,18.46
2017-09-06T09:03:30.670Z,18.62
2017-09-06T09:04:41.145Z,18.62
2017-09-06T09:05:51.340Z,18.69
2017-09-06T09:07:01.841Z,18.69
2017-09-06T09:08:12.325Z,18.76
2017-09-06T09:09:23.041Z,18.63
2017-09-06T09:10:33.507Z,18.72
2017-09-06T09:11:44.087Z,18.8
2017-09-06T09:12:54.556Z,18.82
2017-09-06T09:14:05.072Z,18.82
2017-09-06T09:15:15.777Z,18.84
2017-09-06T09:16:26.537Z,18.91
2017-09-06T09:17:37.017Z,18.86
2017-09-06T09:18:47.526Z,18.86
2017-09-06T09:19:57.366Z,18.93
2017-09-06T09:21:08.340Z,18.93
2017-09-06T09:22:19.033Z,18.94
2017-09-06T09:23:29.538Z,19.05
2017-09-06T09:24:40.133Z,19.08
2017-09-06T09:25:50.312Z,19.08
2017-09-06T09:27:01.031Z,19.08
2017-09-06T09:28:11.482Z,19.12
2017-09-06T09:29:21.959Z,19.15
2017-09-06T09:30:31.971Z,19.21
2017-09-06T09:31:42.423Z,19.31
2017-09-06T09:32:53.203Z,19.23
2017-09-06T09:34:03.771Z,19.34
2017-09-06T09:35:14.244Z,19.33
2017-09-06T09:36:24.745Z,19.45
2017-09-06T09:37:35.210Z,19.67
2017-09-06T09:38:45.986Z,19.76
2017-09-06T09:39:57.106Z,19.95
2017-09-06T09:41:07.009Z,20.3
2017-09-06T09:42:17.472Z,20.64
2017-09-06T09:43:28.022Z,20.97
2017-09-06T09:44:38.723Z,21.43
2017-09-06T09:45:48.764Z,22.02
2017-09-06T09:46:59.371Z,22.35
2017-09-06T09:48:09.906Z,22.53
2017-09-06T09:49:20.536Z,22.63
2017-09-06T09:50:30.968Z,23.08
2017-09-06T09:51:41.241Z,23.72
2017-09-06T09:52:51.768Z,24.09
2017-09-06T09:54:02.272Z,24.31
2017-09-06T09:55:12.811Z,24.47
2017-09-06T09:56:23.596Z,24.58
2017-09-06T09:57:33.621Z,24.81
2017-09-06T09:58:44.089Z,24.75
2017-09-06T09:59:54.592Z,24.65
2017-09-06T10:01:05.063Z,24.44
2017-09-06T10:02:15.846Z,24.16
2017-09-06T10:03:26.365Z,23.9
2017-09-06T10:04:36.949Z,23.77
2017-09-06T10:05:47.404Z,23.53
2017-09-06T10:06:57.959Z,23.27
2017-09-06T10:08:08.920Z,23.03
2017-09-06T10:09:19.387Z,22.75
2017-09-06T10:10:29.885Z,22.55
2017-09-06T10:11:39.708Z,22.31
2017-09-06T10:12:50.257Z,22.23
2017-09-06T10:14:00.992Z,22.08
2017-09-06T10:15:11.482Z,22.02
2017-09-06T10:16:21.967Z,21.94
2017-09-06T10:17:32.461Z,21.72
2017-09-06T10:18:42.925Z,21.64
2017-09-06T10:19:53.755Z,21.81
2017-09-06T10:21:03.953Z,22.02
2017-09-06T10:22:14.432Z,22.12
2017-09-06T10:23:24.942Z,22.21
2017-09-06T10:24:35.260Z,22.26
2017-09-06T10:25:46.100Z,22.26
2017-09-06T10:26:56.590Z,22.38
2017-09-06T10:28:07.177Z,22.42
2017-09-06T10:29:17.633Z,22.46
2017-09-06T10:30:28.160Z,22.7
2017-09-06T10:31:39.871Z,23.09
2017-09-06T10:32:50.345Z,23.38
2017-09-06T10:34:00.820Z,23.58
2017-09-06T10:35:11.413Z,24.09
2017-09-06T10:36:21.895Z,24.43
2017-09-06T10:37:32.766Z,25.03
2017-09-06T10:38:43.240Z,25.27
2017-09-06T10:39:54.382Z,25.17
2017-09-06T10:41:04.888Z,24.85
2017-09-06T10:42:15.359Z,24.6
2017-09-06T10:43:26.139Z,24.34
2017-09-06T10:44:36.301Z,24.17
2017-09-06T10:45:46.903Z,24
2017-09-06T10:46:57.067Z,23.8
2017-09-06T10:48:07.541Z,23.72
2017-09-06T10:49:18.264Z,23.55
2017-09-06T10:50:28.797Z,23.5
2017-09-06T10:51:39.360Z,23.38
2017-09-06T10:52:49.858Z,23.32
2017-09-06T10:54:00.526Z,23.16
2017-09-06T10:55:11.309Z,23.33
2017-09-06T10:56:21.805Z,23.38
2017-09-06T10:57:31.953Z,23.39
2017-09-06T10:58:42.590Z,23.36
2017-09-06T10:59:53.048Z,23.38
2017-09-06T11:01:03.806Z,23.18
2017-09-06T11:02:14.476Z,23.03
2017-09-06T11:03:24.956Z,22.85
2017-09-06T11:04:35.481Z,22.64
2017-09-06T11:05:45.967Z,22.43
2017-09-06T11:06:56.718Z,22.16
2017-09-06T11:08:07.220Z,22.02
2017-09-06T11:09:17.739Z,21.84
2017-09-06T11:10:28.281Z,21.78
2017-09-06T11:11:38.917Z,21.58
2017-09-06T11:12:49.647Z,21.41
2017-09-06T11:14:00.110Z,21.4
2017-09-06T11:15:10.601Z,21.25
2017-09-06T11:16:21.418Z,21.27
2017-09-06T11:17:31.894Z,21.15
2017-09-06T11:18:42.372Z,21.12
2017-09-06T11:19:52.412Z,21.08
2017-09-06T11:21:02.879Z,20.97
2017-09-06T11:22:13.352Z,20.96
2017-09-06T11:23:23.865Z,20.91
2017-09-06T11:24:34.190Z,20.94
2017-09-06T11:25:44.662Z,20.88
2017-09-06T11:26:55.229Z,20.93
2017-09-06T11:28:05.723Z,20.94
2017-09-06T11:29:16.302Z,20.86
2017-09-06T11:30:27.045Z,20.83
2017-09-06T11:31:37.272Z,20.81
2017-09-06T11:32:47.766Z,20.81
2017-09-06T11:33:57.919Z,20.75
2017-09-06T11:35:08.446Z,20.78
2017-09-06T11:36:19.188Z,20.73
2017-09-06T11:37:29.933Z,21.13
2017-09-06T11:38:40.388Z,21.31
2017-09-06T11:39:50.540Z,21.56
2017-09-06T11:41:01.008Z,21.64
2017-09-06T11:42:11.720Z,21.71
2017-09-06T11:43:22.230Z,21.78
2017-09-06T11:44:32.776Z,21.64
2017-09-06T11:45:43.259Z,21.64
2017-09-06T11:46:53.777Z,21.56
2017-09-06T11:48:04.529Z,21.65
2017-09-06T11:49:14.997Z,21.6
2017-09-06T11:50:25.548Z,21.58
2017-09-06T11:51:35.725Z,21.65
2017-09-06T11:52:46.216Z,21.75
2017-09-06T11:53:56.985Z,21.81
2017-09-06T11:55:07.447Z,22.16
2017-09-06T11:56:17.926Z,22.23
2017-09-06T11:57:28.432Z,22.2
2017-09-06T11:58:38.950Z,22.27
2017-09-06T11:59:50.719Z,22.28
2017-09-06T12:01:01.188Z,22.33
2017-09-06T12:02:11.684Z,22.38
2017-09-06T12:03:22.136Z,22.33
2017-09-06T12:04:32.649Z,22.31
2017-09-06T12:05:43.044Z,22.06
2017-09-06T12:06:53.532Z,22.06
2017-09-06T12:08:03.984Z,22.02
2017-09-06T12:09:14.572Z,21.97
2017-09-06T12:10:25.060Z,21.9
2017-09-06T12:11:35.826Z,21.87
2017-09-06T12:12:46.370Z,21.87
2017-09-06T12:13:56.902Z,21.97
2017-09-06T12:15:07.426Z,21.79
2017-09-06T12:16:17.614Z,21.83
2017-09-06T12:17:28.414Z,21.68
2017-09-06T12:18:38.883Z,21.66
2017-09-06T12:19:49.081Z,21.69
2017-09-06T12:20:59.637Z,21.56
2017-09-06T12:22:09.501Z,21.54
2017-09-06T12:23:20.276Z,21.56
2017-09-06T12:24:30.759Z,21.49
2017-09-06T12:25:41.244Z,21.45
2017-09-06T12:26:51.821Z,21.35
2017-09-06T12:28:02.299Z,21.38
2017-09-06T12:29:13.079Z,21.3
2017-09-06T12:30:23.569Z,21.18
2017-09-06T12:31:34.075Z,21.15
2017-09-06T12:32:44.527Z,21.06
2017-09-06T12:33:55.034Z,20.96
2017-09-06T12:35:05.778Z,20.86
2017-09-06T12:36:16.271Z,20.75
2017-09-06T12:37:26.388Z,20.53
2017-09-06T12:38:36.860Z,20.42
2017-09-06T12:39:47.567Z,20.23
2017-09-06T12:40:58.296Z,20.12
2017-09-06T12:42:08.799Z,20.04
2017-09-06T12:43:19.276Z,20.01
2017-09-06T12:44:29.783Z,19.82
2017-09-06T12:45:40.264Z,19.68
2017-09-06T12:46:51.018Z,19.53
2017-09-06T12:48:01.517Z,19.49
2017-09-06T12:49:11.993Z,19.28
2017-09-06T12:50:22.674Z,19.24
2017-09-06T12:51:33.174Z,19.19
2017-09-06T12:52:43.887Z,19.13
2017-09-06T12:53:54.377Z,19.15
2017-09-06T12:55:04.967Z,19.03
2017-09-06T12:56:15.529Z,18.95
2017-09-06T12:57:26.001Z,18.97
2017-09-06T12:58:36.480Z,18.97
2017-09-06T12:59:46.943Z,18.93
2017-09-06T13:00:57.449Z,18.91
2017-09-06T13:02:07.944Z,18.78
2017-09-06T13:03:18.455Z,18.67
2017-09-06T13:04:29.005Z,18.65
2017-09-06T13:05:39.511Z,18.5
2017-09-06T13:06:50.108Z,18.44
2017-09-06T13:08:00.644Z,18.44
2017-09-06T13:09:11.449Z,18.25
2017-09-06T13:10:22.173Z,18.16
2017-09-06T13:11:32.666Z,18.17
2017-09-06T13:12:42.843Z,18.1
2017-09-06T13:13:53.461Z,18.02
2017-09-06T13:15:03.915Z,18.09
2017-09-06T13:16:14.661Z,18.07
2017-09-06T13:17:25.228Z,18.1
2017-09-06T13:18:35.690Z,18.1
2017-09-06T13:19:46.184Z,18.05
2017-09-06T13:20:56.720Z,18.01
2017-09-06T13:22:07.428Z,18.05
2017-09-06T13:23:17.597Z,18.02
2017-09-06T13:24:28.056Z,18.04
2017-09-06T13:25:38.526Z,18.02
2017-09-06T13:26:49.014Z,17.95
2017-09-06T13:27:59.406Z,18.07
2017-09-06T13:29:09.903Z,18.07
2017-09-06T13:30:20.095Z,18.16
2017-09-06T13:31:30.640Z,18.37
2017-09-06T13:32:41.118Z,18.57
2017-09-06T13:33:51.509Z,18.65
2017-09-06T13:35:01.995Z,18.84
2017-09-06T13:36:12.638Z,18.98
2017-09-06T13:37:23.162Z,19.1
2017-09-06T13:38:33.619Z,19.18
2017-09-06T13:39:44.458Z,19.18
2017-09-06T13:40:54.928Z,19.08
2017-09-06T13:42:05.145Z,19.12
2017-09-06T13:43:15.369Z,18.93
2017-09-06T13:44:25.528Z,18.94
2017-09-06T13:45:36.322Z,18.84
2017-09-06T13:46:46.832Z,18.67
2017-09-06T13:47:57.344Z,18.55
2017-09-06T13:49:07.828Z,18.52
2017-09-06T13:50:18.344Z,18.41
2017-09-06T13:51:29.139Z,18.41
2017-09-06T13:52:39.626Z,18.38
2017-09-06T13:53:50.103Z,18.31
2017-09-06T13:55:00.603Z,18.15
2017-09-06T13:56:11.076Z,18.02
2017-09-06T13:57:21.812Z,17.98
2017-09-06T13:58:32.265Z,17.98
2017-09-06T13:59:42.789Z,17.97
2017-09-06T14:00:53.286Z,17.82
2017-09-06T14:02:03.802Z,17.85
2017-09-06T14:03:14.748Z,17.95
2017-09-06T14:04:25.218Z,17.95
2017-09-06T14:05:35.681Z,17.92
2017-09-06T14:06:45.838Z,17.86
2017-09-06T14:07:56.006Z,18.05
2017-09-06T14:09:06.746Z,18.02
2017-09-06T14:10:17.241Z,18
2017-09-06T14:11:27.728Z,17.97
2017-09-06T14:12:38.219Z,17.97
2017-09-06T14:13:48.419Z,18.04
2017-09-06T14:14:59.137Z,18.05
2017-09-06T14:16:09.734Z,17.89
2017-09-06T14:17:20.217Z,18
2017-09-06T14:18:30.778Z,17.94
2017-09-06T14:19:42.218Z,17.97
2017-09-06T14:20:53.171Z,17.97
2017-09-06T14:22:03.640Z,17.95
2017-09-06T14:23:14.125Z,17.98
2017-09-06T14:24:23.979Z,17.97
2017-09-06T14:25:34.145Z,17.94
2017-09-06T14:26:45.011Z,17.91
2017-09-06T14:27:55.293Z,17.92
2017-09-06T14:29:05.974Z,18.07
2017-09-06T14:30:16.519Z,18.1
2017-09-06T14:31:27.097Z,18.28
2017-09-06T14:32:37.371Z,18.28
2017-09-06T14:33:47.973Z,18.35
2017-09-06T14:34:58.458Z,18.41
2017-09-06T14:36:09.063Z,18.38
2017-09-06T14:37:19.658Z,18.32
2017-09-06T14:38:30.392Z,18.4
2017-09-06T14:39:40.563Z,18.49
2017-09-06T14:40:51.067Z,18.42
2017-09-06T14:42:01.570Z,18.55
2017-09-06T14:43:12.067Z,18.59
2017-09-06T14:44:22.789Z,18.56
2017-09-06T14:45:33.059Z,18.59
2017-09-06T14:46:43.736Z,18.55
2017-09-06T14:47:53.902Z,18.62
2017-09-06T14:49:05.353Z,18.57
2017-09-06T14:50:16.168Z,18.57
2017-09-06T14:51:26.680Z,18.44
2017-09-06T14:52:37.214Z,18.38
2017-09-06T14:53:47.680Z,18.38
2017-09-06T14:54:58.144Z,18.38
2017-09-06T14:56:08.956Z,18.26
2017-09-06T14:57:19.239Z,18.37
2017-09-06T14:58:29.811Z,18.3
2017-09-06T14:59:40.290Z,18.34
2017-09-06T15:00:50.765Z,18.32
2017-09-06T15:02:01.509Z,18.34
2017-09-06T15:03:12.008Z,18.26
2017-09-06T15:04:22.560Z,18.28
2017-09-06T15:05:33.028Z,18.12
2017-09-06T15:06:44.166Z,18.02
2017-09-06T15:07:54.991Z,18.01
2017-09-06T15:09:05.259Z,17.94
2017-09-06T15:10:15.996Z,17.98
2017-09-06T15:11:26.456Z,17.91